Time;durP1;ratioP1;P1;durP2;ratioP2;P2;SDS_P1;SDS_P2;PMS_P1;PMS_P2;Temp;Humidity;BMP_temperature;BMP_pressure;BME280_temperature;BME280_humidity;BME280_pressure;Samples;Min_cycle;Max_cycle;Signal;HPM_P1;HPM_P2
2023/05/20 00:02:00;;;;;;;4.33;2.47;;;;;;;12.39;62.20;102306.63;5096056;28;20020;-86
2023/05/20 00:04:25;;;;;;;4.15;2.33;;;;;;;12.35;62.68;102304.91;5095357;28;20123;-85
2023/05/20 00:06:50;;;;;;;3.63;2.20;;;;;;;12.30;62.85;102297.09;5095970;28;20052;-85
2023/05/20 00:09:16;;;;;;;3.33;2.30;;;;;;;12.27;61.95;102293.63;5095656;28;20040;-85
2023/05/20 00:11:41;;;;;;;4.70;2.57;;;;;;;12.24;62.88;102296.22;5095152;28;20027;-87
2023/05/20 00:14:06;;;;;;;2.30;2.10;;;;;;;12.25;61.58;102301.41;5096076;28;20486;-85
2023/05/20 00:16:32;;;;;;;2.23;2.03;;;;;;;12.22;62.35;102298.81;5095618;28;20070;-85
2023/05/20 00:18:57;;;;;;;3.60;2.17;;;;;;;12.17;63.57;102291.00;5095036;28;20052;-84
2023/05/20 00:21:22;;;;;;;2.67;2.00;;;;;;;12.18;62.46;102299.69;5095575;28;20058;-86
2023/05/20 00:23:48;;;;;;;2.43;1.90;;;;;;;12.16;62.00;102304.00;5095771;28;20111;-85
2023/05/20 00:26:13;;;;;;;1.53;1.43;;;;;;;12.15;61.36;102304.88;5094416;28;20214;-85
2023/05/20 00:28:38;;;;;;;3.83;2.20;;;;;;;12.11;63.90;102308.31;5087393;28;20032;-85
2023/05/20 00:31:04;;;;;;;1.90;1.70;;;;;;;12.09;66.10;102297.94;5074620;28;20036;-85
2023/05/20 00:33:29;;;;;;;2.73;2.30;;;;;;;12.05;64.36;102301.38;5074328;28;20029;-86
2023/05/20 00:35:55;;;;;;;3.00;1.90;;;;;;;11.99;65.09;102299.63;5075276;28;20037;-84
2023/05/20 00:38:20;;;;;;;3.20;1.80;;;;;;;11.90;64.65;102284.88;5074672;28;20055;-85
2023/05/20 00:40:45;;;;;;;3.10;2.10;;;;;;;11.93;64.26;102298.75;5074610;28;20039;-84
2023/05/20 00:43:11;;;;;;;3.33;2.00;;;;;;;11.91;65.08;102296.13;5074983;28;20032;-87
2023/05/20 00:45:37;;;;;;;3.30;2.10;;;;;;;11.86;66.99;102290.91;5074873;28;20523;-85
2023/05/20 00:48:03;;;;;;;3.65;2.50;;;;;;;11.82;65.86;102296.09;5089151;28;20024;-85
2023/05/20 00:50:30;;;;;;;3.45;2.00;;;;;;;11.79;64.37;102290.88;5095289;28;20025;-84
2023/05/20 00:52:55;;;;;;;3.42;1.90;;;;;;;11.71;65.13;102277.84;5095289;28;20104;-85
2023/05/20 00:55:21;;;;;;;2.77;2.20;;;;;;;11.71;67.53;102289.13;5093376;28;20055;-84
2023/05/20 00:57:48;;;;;;;2.60;2.07;;;;;;;11.70;65.96;102281.34;5095310;28;20490;-85
2023/05/20 01:00:13;;;;;;;2.10;1.90;;;;;;;11.69;65.29;102288.25;5094315;28;20024;-85
2023/05/20 01:02:39;;;;;;;2.10;1.70;;;;;;;11.69;66.86;102287.41;5094947;28;20026;-85
2023/05/20 01:05:04;;;;;;;2.90;2.07;;;;;;;11.64;67.12;102276.09;5094418;28;20032;-85
2023/05/20 01:07:30;;;;;;;3.73;2.50;;;;;;;11.54;67.73;102276.06;5093978;28;20032;-87
2023/05/20 01:09:56;;;;;;;3.33;1.93;;;;;;;11.59;65.50;102279.59;5094766;28;20483;-87
2023/05/20 01:12:28;;;;;;;5.23;2.60;;;;;;;11.54;69.13;102281.28;5094727;28;20040;-88
2023/05/20 01:14:59;;;;;;;5.60;2.78;;;;;;;11.49;69.59;102282.97;5094123;28;20032;-87
2023/05/20 01:17:29;;;;;;;6.20;3.10;;;;;;;11.46;68.19;102284.69;5084266;28;20031;-88
2023/05/20 01:19:57;;;;;;;4.47;2.53;;;;;;;11.44;68.53;102279.50;5075263;28;20055;-88
2023/05/20 01:22:27;;;;;;;3.55;2.33;;;;;;;11.43;66.93;102282.97;5093885;28;20052;-88
2023/05/20 01:24:52;;;;;;;4.43;2.60;;;;;;;11.40;70.33;102280.34;5094738;28;20028;-87
2023/05/20 01:27:19;;;;;;;4.83;2.40;;;;;;;11.34;67.85;102272.53;5094412;28;20073;-87
2023/05/20 01:29:49;;;;;;;2.10;1.90;;;;;;;11.36;67.00;102276.88;5092011;28;20030;-88
2023/05/20 01:32:20;;;;;;;3.50;2.20;;;;;;;11.38;68.52;102275.16;5073842;28;20032;-85
2023/05/20 01:34:48;;;;;;;2.13;1.90;;;;;;;11.37;66.41;102282.94;5074266;28;20048;-85
2023/05/20 01:37:14;;;;;;;4.35;2.00;;;;;;;11.41;64.98;102276.88;5072808;28;20124;-85
2023/05/20 01:39:41;;;;;;;2.00;1.90;;;;;;;11.35;67.25;102274.28;5075707;28;20223;-85
2023/05/20 01:42:08;;;;;;;2.00;1.80;;;;;;;11.33;67.89;102265.59;5092012;28;20031;-85
2023/05/20 01:44:34;;;;;;;1.75;1.65;;;;;;;11.31;68.19;102268.19;5094019;28;20032;-85
2023/05/20 01:47:03;;;;;;;3.43;2.20;;;;;;;11.26;69.84;102268.16;5093404;28;20020;-85
2023/05/20 01:49:28;;;;;;;2.95;2.10;;;;;;;11.22;69.02;102266.41;5093507;28;20495;-87
2023/05/20 01:51:54;;;;;;;3.23;2.13;;;;;;;11.18;69.77;102259.47;5093949;28;20052;-87
2023/05/20 01:54:22;;;;;;;2.33;2.03;;;;;;;11.14;68.07;102252.53;5093831;28;20490;-88
2023/05/20 01:56:48;;;;;;;2.00;1.90;;;;;;;11.17;69.65;102260.31;5093440;28;20486;-88
2023/05/20 01:59:14;;;;;;;3.30;1.90;;;;;;;11.14;68.47;102257.72;5093926;28;20028;-85
2023/05/20 02:01:40;;;;;;;6.73;2.90;;;;;;;11.06;70.89;102256.78;5093917;28;20023;-85
2023/05/20 02:04:05;;;;;;;4.30;2.20;;;;;;;11.01;68.86;102251.56;5092510;28;20472;-85
2023/05/20 02:06:31;;;;;;;3.03;1.77;;;;;;;11.06;68.64;102255.09;5093875;28;20111;-85
2023/05/20 02:08:56;;;;;;;6.63;2.70;;;;;;;11.00;70.13;102257.63;5093566;28;20048;-85
2023/05/20 02:11:21;;;;;;;4.90;2.57;;;;;;;10.99;70.48;102260.22;5076776;28;20089;-85
2023/05/20 02:13:48;;;;;;;7.37;3.27;;;;;;;10.93;71.31;102256.72;5055791;28;20032;-85
2023/05/20 02:16:14;;;;;;;3.00;2.40;;;;;;;10.88;69.93;102244.56;5072852;28;20024;-85
2023/05/20 02:18:39;;;;;;;3.57;2.30;;;;;;;10.92;70.92;102257.56;5072825;28;20043;-85
2023/05/20 02:21:05;;;;;;;3.70;2.30;;;;;;;10.90;70.48;102255.84;5072830;28;20384;-85
2023/05/20 02:23:30;;;;;;;2.53;2.10;;;;;;;10.87;69.43;102255.81;5073570;28;20043;-85
2023/05/20 02:25:56;;;;;;;2.20;1.90;;;;;;;10.86;69.97;102254.97;5072993;28;20040;-84
2023/05/20 02:28:22;;;;;;;2.20;2.00;;;;;;;10.85;70.39;102253.22;5072857;28;20070;-85
2023/05/20 02:30:49;;;;;;;4.20;2.30;;;;;;;10.80;72.22;102248.00;5073385;28;20063;-84
2023/05/20 02:33:15;;;;;;;2.75;2.30;;;;;;;10.79;71.51;102251.44;5073387;28;20090;-85
2023/05/20 02:35:40;;;;;;;2.30;2.10;;;;;;;10.79;72.70;102248.00;5073373;28;20051;-86
2023/05/20 02:38:05;;;;;;;2.93;2.20;;;;;;;10.74;71.44;102241.88;5091281;28;20039;-85
2023/05/20 02:40:31;;;;;;;2.37;1.87;;;;;;;10.72;70.75;102236.69;5094260;28;20038;-85
2023/05/20 02:42:57;;;;;;;1.80;1.70;;;;;;;10.74;69.97;102244.47;5093446;28;20077;-85
2023/05/20 02:45:22;;;;;;;3.33;1.98;;;;;;;10.71;71.80;102240.16;5092977;28;20117;-85
2023/05/20 02:47:48;;;;;;;2.83;2.07;;;;;;;10.71;71.09;102245.34;5092292;28;20048;-86
2023/05/20 02:50:13;;;;;;;2.50;1.73;;;;;;;10.72;70.88;102246.19;5093031;28;20079;-85
2023/05/20 02:52:41;;;;;;;1.93;1.80;;;;;;;10.65;70.28;102235.78;5093314;28;20069;-85
2023/05/20 02:55:07;;;;;;;2.75;2.25;;;;;;;10.69;73.09;102247.06;5092810;28;20024;-86
2023/05/20 02:57:33;;;;;;;3.70;2.10;;;;;;;10.64;74.97;102238.34;5074514;28;20032;-85
2023/05/20 02:59:59;;;;;;;;;;;;;;;10.64;74.75;102241.84;5072337;28;20025;-86
2023/05/20 03:02:24;;;;;;;2.67;2.17;;;;;;;10.62;71.87;102240.94;5072943;28;20438;-85
2023/05/20 03:04:49;;;;;;;3.83;2.30;;;;;;;10.57;73.93;102237.47;5072633;28;20028;-85
2023/05/20 03:07:18;;;;;;;3.07;2.03;;;;;;;10.60;71.17;102241.81;5081236;28;20070;-85
2023/05/20 03:09:43;;;;;;;4.90;2.75;;;;;;;10.58;75.37;102238.31;5092907;28;20460;-86
2023/05/20 03:12:12;;;;;;;4.57;2.77;;;;;;;10.53;75.76;102229.66;5092178;28;20046;-85
2023/05/20 03:14:53;;;;;;;4.85;2.70;;;;;;;10.54;73.63;102240.03;5092196;28;20483;-85
2023/05/20 03:17:25;;;;;;;3.17;2.40;;;;;;;10.44;73.67;102217.47;5092431;28;20093;-86
2023/05/20 03:20:03;;;;;;;3.28;2.28;;;;;;;10.40;76.89;102219.19;5092298;28;20024;-85
2023/05/20 03:22:37;;;;;;;4.70;2.58;;;;;;;10.38;73.00;102210.50;5092263;28;20028;-85
2023/05/20 03:25:04;;;;;;;2.47;2.00;;;;;;;10.52;73.15;102233.97;5092261;28;20024;-85
2023/05/20 03:27:30;;;;;;;2.30;2.08;;;;;;;10.41;72.91;102217.44;5092496;28;20418;-85
2023/05/20 03:29:56;;;;;;;2.33;2.10;;;;;;;10.54;72.44;102241.75;5091564;28;20030;-86
2023/05/20 03:32:21;;;;;;;1.67;1.57;;;;;;;10.48;72.83;102235.66;5092350;28;20487;-85
2023/05/20 03:34:46;;;;;;;1.60;1.50;;;;;;;10.52;71.94;102244.34;5092275;28;20028;-85
2023/05/20 03:37:12;;;;;;;1.50;1.40;;;;;;;10.52;72.04;102240.88;5091639;28;20017;-85
2023/05/20 03:39:37;;;;;;;2.10;1.90;;;;;;;10.52;70.92;102246.09;5092577;28;20521;-85
2023/05/20 03:42:03;;;;;;;1.43;1.30;;;;;;;10.51;71.24;102240.00;5073437;28;20030;-84
2023/05/20 03:44:29;;;;;;;1.63;1.52;;;;;;;10.50;72.58;102240.84;5092890;28;20020;-86
2023/05/20 03:46:54;;;;;;;3.30;1.77;;;;;;;10.43;73.74;102239.09;5092875;28;20031;-85
2023/05/20 03:49:19;;;;;;;1.70;1.57;;;;;;;10.43;72.44;102239.94;5091676;28;20024;-85
2023/05/20 03:51:44;;;;;;;3.77;2.10;;;;;;;10.37;74.45;102229.50;5092164;28;20042;-85
2023/05/20 03:54:10;;;;;;;3.90;2.40;;;;;;;10.40;76.15;102244.25;5092342;28;20073;-86
2023/05/20 03:56:36;;;;;;;2.97;2.33;;;;;;;10.33;76.45;102238.97;5092071;28;20020;-85
2023/05/20 03:59:01;;;;;;;4.53;2.83;;;;;;;10.29;75.17;102231.16;5092066;28;20020;-85
2023/05/20 04:01:26;;;;;;;2.43;1.90;;;;;;;10.31;74.82;102237.22;5092292;28;20099;-85
2023/05/20 04:03:51;;;;;;;2.10;1.90;;;;;;;10.31;75.25;102237.22;5091658;28;20476;-85
2023/05/20 04:06:17;;;;;;;2.07;1.90;;;;;;;10.28;77.25;102235.47;5092411;28;20028;-85
2023/05/20 04:08:42;;;;;;;2.30;2.10;;;;;;;10.28;75.77;102237.22;5093002;28;20052;-85
2023/05/20 04:11:08;;;;;;;2.73;1.90;;;;;;;10.27;76.71;102233.72;5095316;28;20376;-85
2023/05/20 04:13:33;;;;;;;3.13;2.10;;;;;;;10.25;75.89;102231.97;5095774;28;20023;-85
2023/05/20 04:16:00;;;;;;;1.83;1.70;;;;;;;10.26;75.61;102233.72;5094855;28;20032;-85
2023/05/20 04:18:28;;;;;;;2.15;1.63;;;;;;;10.27;74.57;102246.69;5095754;28;20020;-85
2023/05/20 04:20:55;;;;;;;2.15;1.60;;;;;;;10.28;75.54;102235.47;5096303;28;20043;-85
2023/05/20 04:23:20;;;;;;;1.70;1.60;;;;;;;10.30;75.73;102240.69;5095140;28;20126;-86
2023/05/20 04:25:45;;;;;;;1.60;1.50;;;;;;;10.31;75.86;102243.28;5095017;28;20111;-85
2023/05/20 04:28:12;;;;;;;2.73;1.70;;;;;;;10.33;75.68;102249.38;5095314;28;20032;-86
2023/05/20 04:30:38;;;;;;;2.65;1.83;;;;;;;10.35;76.13;102255.44;5095911;28;20020;-86
2023/05/20 04:33:03;;;;;;;3.00;1.90;;;;;;;10.36;75.06;102251.09;5094836;28;20457;-86
2023/05/20 04:35:28;;;;;;;3.07;1.87;;;;;;;10.36;76.64;102238.97;5095334;28;20028;-86
2023/05/20 04:37:54;;;;;;;2.23;1.90;;;;;;;10.41;76.14;102249.47;5095314;28;20024;-85
2023/05/20 04:40:20;;;;;;;1.90;1.80;;;;;;;10.44;76.77;102241.69;5094639;28;20074;-86
2023/05/20 04:42:45;;;;;;;2.00;1.80;;;;;;;10.46;76.74;102241.72;5095674;28;20376;-85
2023/05/20 04:45:11;;;;;;;1.87;1.70;;;;;;;10.52;76.12;102241.75;5094801;28;20028;-85
2023/05/20 04:47:37;;;;;;;2.40;1.73;;;;;;;10.53;78.17;102238.28;5081014;28;20016;-86
2023/05/20 04:50:09;;;;;;;3.03;2.30;;;;;;;10.55;77.30;102238.28;5075065;28;20032;-85
2023/05/20 04:52:36;;;;;;;5.97;2.80;;;;;;;10.58;80.27;102249.59;5074205;28;20944;-85
2023/05/20 04:55:02;;;;;;;;;;;;;;;10.62;80.44;102248.75;5075180;28;20035;-86
2023/05/20 04:57:27;;;;;;;9.90;4.10;;;;;;;10.65;79.11;102248.78;5075337;28;19908;-86
2023/05/20 04:59:57;;;;;;;7.63;3.50;;;;;;;10.70;80.42;102245.31;5074698;28;20453;-86
2023/05/20 05:02:22;;;;;;;8.35;4.03;;;;;;;10.75;80.71;102249.69;5074874;28;20501;-86
2023/05/20 05:04:48;;;;;;;7.00;3.70;;;;;;;10.72;80.38;102230.63;5074536;28;20032;-86
2023/05/20 05:07:15;;;;;;;6.33;3.30;;;;;;;10.85;79.06;102241.97;5074146;28;20475;-86
2023/05/20 05:09:40;;;;;;;5.93;3.15;;;;;;;10.85;79.39;102229.84;5078580;28;20081;-85
2023/05/20 05:12:06;;;;;;;5.27;3.63;;;;;;;10.91;80.00;102231.59;5094644;28;20064;-86
2023/05/20 05:14:31;;;;;;;10.90;4.77;;;;;;;10.99;80.41;102236.84;5090326;28;20028;-87
2023/05/20 05:16:56;;;;;;;8.97;4.37;;;;;;;11.06;78.99;102230.81;5074923;28;20033;-88
2023/05/20 05:19:22;;;;;;;9.00;4.63;;;;;;;10.99;79.85;102213.47;5075121;28;20032;-85
2023/05/20 05:21:47;;;;;;;9.57;4.80;;;;;;;11.10;79.57;102223.03;5076443;28;20021;-88
2023/05/20 05:24:13;;;;;;;8.03;4.20;;;;;;;11.18;78.76;102225.69;5074787;28;20119;-86
2023/05/20 05:26:38;;;;;;;10.63;4.50;;;;;;;11.27;79.00;102222.25;5074321;28;20028;-86
2023/05/20 05:29:03;;;;;;;11.60;5.20;;;;;;;11.30;79.10;102217.06;5073773;28;20043;-85
2023/05/20 05:31:29;;;;;;;10.33;4.70;;;;;;;11.40;78.88;102228.34;5074314;28;20476;-87
2023/05/20 05:33:54;;;;;;;11.43;5.23;;;;;;;11.41;78.76;102217.97;5074399;28;20603;-86
2023/05/20 05:36:19;;;;;;;9.63;4.53;;;;;;;11.49;78.94;102230.13;5073336;28;20035;-87
2023/05/20 05:38:45;;;;;;;9.43;4.53;;;;;;;11.56;77.44;102230.16;5074241;28;20059;-86
2023/05/20 05:41:10;;;;;;;10.17;4.30;;;;;;;11.63;77.68;102222.34;5090062;28;20107;-86
2023/05/20 05:43:35;;;;;;;6.47;4.20;;;;;;;11.69;77.14;102228.44;5094383;28;20080;-87
2023/05/20 05:46:01;;;;;;;8.87;4.57;;;;;;;11.69;76.89;102214.59;5094484;28;20028;-86
2023/05/20 05:48:27;;;;;;;;;;;;;;;11.79;77.71;102229.34;5094742;28;20044;-87
2023/05/20 05:50:53;;;;;;;10.03;4.30;;;;;;;11.83;77.36;102218.06;5093805;28;19919;-87
2023/05/20 05:53:18;;;;;;;7.27;3.90;;;;;;;11.92;78.05;102225.00;5093873;28;20023;-84
2023/05/20 05:55:46;;;;;;;10.03;4.30;;;;;;;11.99;77.10;102215.53;5093267;28;20056;-87
2023/05/20 05:58:12;;;;;;;12.80;5.60;;;;;;;12.01;75.75;102221.59;5094087;28;20024;-87
2023/05/20 06:00:37;;;;;;;12.13;5.67;;;;;;;12.07;75.91;102216.38;5092090;28;20089;-87
2023/05/20 06:03:02;;;;;;;10.97;4.97;;;;;;;12.18;76.17;102227.66;5093558;28;20457;-86
2023/05/20 06:05:28;;;;;;;8.57;4.13;;;;;;;12.25;75.98;102228.53;5093811;28;20032;-86
2023/05/20 06:07:53;;;;;;;10.13;4.57;;;;;;;12.37;75.14;102225.06;5091584;28;20048;-85
2023/05/20 06:10:18;;;;;;;9.17;5.23;;;;;;;12.43;75.11;102225.06;5092919;28;20107;-78
2023/05/20 06:12:43;;;;;;;9.30;4.50;;;;;;;12.45;74.50;102223.31;5093906;28;20054;-86
2023/05/20 06:15:09;;;;;;;7.53;4.07;;;;;;;12.58;74.31;102225.91;5093230;28;20354;-85
2023/05/20 06:17:34;;;;;;;7.97;4.50;;;;;;;12.80;73.44;102227.59;5093034;28;20024;-84
2023/05/20 06:20:00;;;;;;;9.73;4.53;;;;;;;13.13;72.82;102220.56;5093059;28;20037;-84
2023/05/20 06:22:25;;;;;;;9.10;4.60;;;;;;;13.29;70.75;102216.13;5093095;28;20110;-83
2023/05/20 06:24:50;;;;;;;8.00;4.60;;;;;;;13.35;72.06;102212.63;5082890;28;20389;-85
2023/05/20 06:27:15;;;;;;;8.77;4.53;;;;;;;13.59;69.19;102219.47;5072710;28;20020;-85
2023/05/20 06:29:41;;;;;;;8.37;4.50;;;;;;;13.80;69.29;102217.59;5073201;28;20376;-85
2023/05/20 06:32:07;;;;;;;9.37;4.13;;;;;;;13.84;69.10;102211.50;5071880;28;20103;-85
2023/05/20 06:34:32;;;;;;;8.00;4.20;;;;;;;14.15;69.30;102206.03;5072529;28;20036;-85
2023/05/20 06:36:58;;;;;;;6.57;3.70;;;;;;;15.18;65.55;102198.03;5072753;28;20025;-85
2023/05/20 06:39:26;;;;;;;6.77;3.90;;;;;;;16.27;61.07;102197.25;5086846;28;20059;-79
2023/05/20 06:41:51;;;;;;;10.00;4.20;;;;;;;16.90;56.73;102199.59;5092810;28;20492;-83
2023/05/20 06:44:17;;;;;;;8.10;4.07;;;;;;;16.95;55.00;102190.75;5092842;28;20032;-82
2023/05/20 06:46:43;;;;;;;7.75;4.40;;;;;;;16.73;55.69;102199.91;5092373;28;20089;-84
2023/05/20 06:49:08;;;;;;;11.10;4.27;;;;;;;16.47;56.79;102191.66;5091129;28;20032;-81
2023/05/20 06:51:33;;;;;;;8.20;3.97;;;;;;;16.52;57.35;102187.22;5092817;28;20028;-83
2023/05/20 06:54:01;;;;;;;9.27;3.93;;;;;;;16.71;57.45;102189.47;5091943;28;20047;-80
2023/05/20 06:56:26;;;;;;;6.72;3.75;;;;;;;16.66;58.46;102175.63;5092812;28;20535;-77
2023/05/20 06:58:52;;;;;;;7.63;3.77;;;;;;;16.74;56.83;102185.94;5092187;28;20118;-84
2023/05/20 07:01:17;;;;;;;7.07;3.37;;;;;;;16.72;57.08;102180.72;5092176;28;20033;-84
2023/05/20 07:03:43;;;;;;;7.37;3.97;;;;;;;16.27;57.27;102171.06;5093075;28;20534;-85
2023/05/20 07:06:09;;;;;;;8.50;4.20;;;;;;;15.86;57.48;102177.88;5091936;28;20024;-85
2023/05/20 07:08:34;;;;;;;8.40;3.50;;;;;;;15.89;59.04;102177.84;5092834;28;20044;-87
2023/05/20 07:10:59;;;;;;;7.63;3.80;;;;;;;15.84;58.58;102174.38;5092870;28;20032;-85
2023/05/20 07:13:25;;;;;;;6.27;3.73;;;;;;;15.85;57.97;102176.16;5092664;28;20020;-85
2023/05/20 07:15:50;;;;;;;6.83;3.90;;;;;;;15.65;57.79;102172.06;5093271;28;20473;-86
2023/05/20 07:18:15;;;;;;;7.47;4.07;;;;;;;15.66;58.43;102191.25;5081099;28;20492;-84
2023/05/20 07:20:41;;;;;;;5.77;3.40;;;;;;;15.76;58.11;102177.16;5071437;28;20389;-85
2023/05/20 07:23:06;;;;;;;6.97;3.30;;;;;;;15.89;59.03;102167.38;5072291;28;20035;-85
2023/05/20 07:25:31;;;;;;;5.13;3.40;;;;;;;15.89;56.89;102170.00;5073051;28;20035;-86
2023/05/20 07:27:58;;;;;;;6.80;3.77;;;;;;;15.87;56.87;102177.00;5072446;28;20532;-86
2023/05/20 07:30:24;;;;;;;5.32;3.53;;;;;;;15.85;56.96;102160.44;5073051;28;20464;-90
2023/05/20 07:32:49;;;;;;;7.73;3.80;;;;;;;15.82;56.48;102163.09;5072757;28;20078;-87
2023/05/20 07:35:14;;;;;;;6.57;3.53;;;;;;;15.86;56.98;102167.41;5072977;28;20036;-86
2023/05/20 07:37:40;;;;;;;6.77;3.50;;;;;;;15.91;56.85;102162.97;5072647;28;20020;-87
2023/05/20 07:40:06;;;;;;;6.17;3.70;;;;;;;15.94;56.50;102169.91;5073046;28;20108;-87
2023/05/20 07:42:34;;;;;;;8.65;4.03;;;;;;;15.52;56.65;102171.41;5072823;28;20020;-88
2023/05/20 07:45:00;;;;;;;8.30;3.70;;;;;;;15.71;57.94;102171.97;5076064;28;20033;-93
2023/05/20 07:47:25;;;;;;;8.37;3.60;;;;;;;15.75;56.55;102164.97;5078418;28;20354;-92
2023/05/20 07:49:50;;;;;;;8.80;3.90;;;;;;;15.70;56.04;102161.53;5077317;28;20081;-88
2023/05/20 07:52:16;;;;;;;9.13;4.50;;;;;;;15.78;56.72;102159.66;5077320;28;20021;-87
2023/05/20 07:54:41;;;;;;;6.63;3.57;;;;;;;15.82;57.64;102135.16;5076074;28;20032;-87
2023/05/20 07:57:19;;;;;;;7.30;3.70;;;;;;;16.01;56.55;102148.84;5057399;28;20031;-88
2023/05/20 07:59:44;;;;;;;12.23;4.13;;;;;;;16.14;54.79;102165.19;5095059;28;20032;-86
2023/05/20 08:02:10;;;;;;;7.93;3.80;;;;;;;16.13;54.90;102165.22;5098415;28;20042;-89
2023/05/20 08:04:35;;;;;;;8.03;3.70;;;;;;;15.92;55.31;102129.78;5099143;28;20016;-84
2023/05/20 08:07:01;;;;;;;10.20;3.73;;;;;;;16.09;55.21;102150.44;5096878;28;20024;-85
2023/05/20 08:09:26;;;;;;;8.40;3.70;;;;;;;16.21;55.39;102145.84;5095407;28;20104;-85
2023/05/20 08:11:51;;;;;;;9.17;3.70;;;;;;;16.23;54.26;102160.69;5095993;28;20028;-85
2023/05/20 08:14:17;;;;;;;8.13;3.73;;;;;;;16.09;54.68;102140.84;5095443;28;20476;-84
2023/05/20 08:16:42;;;;;;;7.87;3.93;;;;;;;16.19;54.44;102131.94;5084983;28;20094;-85
2023/05/20 08:19:07;;;;;;;6.83;3.50;;;;;;;16.39;54.21;102140.28;5075194;28;20024;-84
2023/05/20 08:21:34;;;;;;;7.67;3.87;;;;;;;16.42;54.75;102135.88;5075162;28;20388;-84
2023/05/20 08:23:59;;;;;;;8.18;3.78;;;;;;;16.47;54.83;102139.25;5074274;28;20507;-85
2023/05/20 08:26:25;;;;;;;7.97;3.40;;;;;;;16.55;52.97;102141.75;5075323;28;20067;-83
2023/05/20 08:28:53;;;;;;;6.72;3.63;;;;;;;16.47;53.24;102123.53;5075470;28;20020;-85
2023/05/20 08:31:28;;;;;;;7.43;3.38;;;;;;;16.74;53.69;102131.75;5074102;28;20054;-85
2023/05/20 08:33:53;;;;;;;8.45;4.10;;;;;;;16.53;52.59;102130.41;5075365;28;20429;-87
2023/05/20 08:36:18;;;;;;;9.87;3.80;;;;;;;16.70;53.73;102130.09;5076164;28;20031;-88
2023/05/20 08:38:44;;;;;;;8.10;3.80;;;;;;;16.61;52.30;102130.28;5089732;28;20104;-89
2023/05/20 08:41:09;;;;;;;6.53;3.40;;;;;;;16.85;54.68;102118.41;5075395;28;20016;-87
2023/05/20 08:43:35;;;;;;;7.17;3.30;;;;;;;17.07;51.26;102131.97;5075791;28;20382;-89
2023/05/20 08:46:04;;;;;;;6.90;3.58;;;;;;;17.14;51.50;102119.56;5074565;28;20032;-87
2023/05/20 08:48:30;;;;;;;7.97;3.78;;;;;;;17.01;50.29;102126.84;5075368;28;20048;-87
2023/05/20 08:50:56;;;;;;;;;;;;;;;16.82;51.43;102124.59;5075779;28;20493;-85
2023/05/20 08:53:22;;;;;;;7.28;3.70;;;;;;;16.74;50.41;102117.78;5074207;28;19916;-89
2023/05/20 08:55:54;;;;;;;5.65;3.20;;;;;;;16.93;51.40;102131.34;5073867;28;20024;-87
2023/05/20 08:58:22;;;;;;;6.20;3.28;;;;;;;16.98;50.01;102119.06;5074976;28;20025;-85
2023/05/20 09:00:47;;;;;;;6.28;3.53;;;;;;;16.98;49.63;102130.41;5074552;28;20021;-87
2023/05/20 09:03:13;;;;;;;6.40;3.70;;;;;;;16.96;50.22;102121.69;5074812;28;20025;-84
2023/05/20 09:05:38;;;;;;;7.37;3.30;;;;;;;17.15;50.10;102121.31;5081742;28;20480;-86
2023/05/20 09:08:05;;;;;;;8.73;4.20;;;;;;;16.95;49.95;102111.25;5091374;28;20048;-86
2023/05/20 09:10:32;;;;;;;6.80;3.40;;;;;;;17.16;49.29;102104.66;5094605;28;20111;-85
2023/05/20 09:13:00;;;;;;;5.97;3.10;;;;;;;17.37;50.57;102097.19;5077938;22;20081;-86
2023/05/20 09:15:25;;;;;;;5.88;3.33;;;;;;;17.30;49.18;102120.09;5053504;28;20388;-82
2023/05/20 09:17:50;;;;;;;7.60;3.57;;;;;;;17.12;50.06;102109.09;5053862;28;20017;-79
2023/05/20 09:20:16;;;;;;;5.37;3.30;;;;;;;17.27;50.42;102094.78;5069438;22;20060;-80
2023/05/20 09:22:41;;;;;;;7.70;3.20;;;;;;;17.25;48.94;102093.06;5077327;23;20377;-80
2023/05/20 09:25:08;;;;;;;6.80;3.33;;;;;;;17.15;49.47;102105.56;5073600;28;20479;-80
2023/05/20 09:27:33;;;;;;;4.25;2.70;;;;;;;17.40;49.66;102100.59;5072798;28;20035;-80
2023/05/20 09:29:58;;;;;;;4.87;2.90;;;;;;;17.79;48.80;102096.16;5068477;28;20388;-80
2023/05/20 09:32:27;;;;;;;5.43;3.40;;;;;;;17.55;48.53;102109.00;5057674;28;20052;-80
2023/05/20 09:34:52;;;;;;;5.00;3.20;;;;;;;17.37;49.65;102099.81;5060899;28;20452;-79
2023/05/20 09:37:20;;;;;;;6.07;3.03;;;;;;;17.53;50.22;102093.28;5069023;28;20590;-80
2023/05/20 09:39:58;;;;;;;7.05;3.38;;;;;;;17.77;50.02;102095.34;5054003;28;20041;-80
2023/05/20 09:42:34;;;;;;;6.55;3.50;;;;;;;17.89;49.08;102098.50;5072976;28;20435;-80
2023/05/20 09:45:03;;;;;;;5.90;3.35;;;;;;;17.87;48.37;102092.41;5059606;28;20063;-80
2023/05/20 09:47:29;;;;;;;7.80;3.80;;;;;;;17.94;49.86;102100.16;5066417;28;20055;-80
2023/05/20 09:49:55;;;;;;;6.80;3.17;;;;;;;17.86;49.28;102085.44;5068282;28;20025;-80
2023/05/20 09:52:37;;;;;;;6.97;3.45;;;;;;;17.76;48.04;102112.84;5065205;28;20025;-80
2023/05/20 09:55:05;;;;;;;4.53;3.30;;;;;;;17.83;48.84;102095.16;5061890;28;20025;-80
2023/05/20 09:57:35;;;;;;;5.35;3.38;;;;;;;17.89;49.20;102087.16;5055310;28;20492;-81
2023/05/20 10:00:01;;;;;;;8.20;4.03;;;;;;;17.96;48.03;102099.22;5070099;28;20137;-81
2023/05/20 10:02:27;;;;;;;5.85;3.28;;;;;;;18.30;47.68;102106.22;5072497;28;20024;-81
2023/05/20 10:04:55;;;;;;;8.30;4.07;;;;;;;18.16;47.08;102092.56;5060561;28;20029;-81
2023/05/20 10:07:39;;;;;;;5.07;3.42;;;;;;;18.30;47.77;102081.69;5066404;28;20046;-80
2023/05/20 10:10:47;;;;;;;5.22;3.30;;;;;;;18.04;47.23;102080.66;5070467;28;20020;-80
2023/05/20 10:13:25;;;;;;;6.43;3.05;;;;;;;18.23;47.39;102060.00;5010996;28;20026;-80
2023/05/20 10:16:22;;;;;;;5.72;3.00;;;;;;;18.46;46.50;102074.25;5010306;28;20385;-80
2023/05/20 10:19:02;;;;;;;6.85;3.47;;;;;;;18.44;47.55;102070.78;5054511;28;20074;-80
2023/05/20 10:21:27;;;;;;;7.80;2.90;;;;;;;18.19;48.10;102060.97;5079959;28;20044;-80
2023/05/20 10:23:53;;;;;;;4.97;3.40;;;;;;;18.00;47.31;102071.13;5093411;28;20035;-80
2023/05/20 10:26:19;;;;;;;4.40;2.80;;;;;;;18.18;48.13;102051.38;5093200;28;20388;-80
2023/05/20 10:28:45;;;;;;;5.05;2.72;;;;;;;18.56;47.84;102057.31;5093879;28;20024;-80
2023/05/20 10:31:21;;;;;;;5.22;3.00;;;;;;;18.86;46.52;102059.06;5092533;28;20043;-80
2023/05/20 10:33:47;;;;;;;6.95;3.85;;;;;;;18.57;45.95;102052.88;5081874;28;20020;-80
2023/05/20 10:36:25;;;;;;;4.70;3.20;;;;;;;18.48;46.48;102054.00;5073806;28;20032;-80
2023/05/20 10:38:58;;;;;;;5.88;3.20;;;;;;;18.44;45.88;102047.13;5072378;28;20029;-80
2023/05/20 10:41:26;;;;;;;6.07;2.85;;;;;;;18.66;46.62;102045.59;5074448;28;20044;-80
2023/05/20 10:44:04;;;;;;;4.63;3.10;;;;;;;19.08;46.68;102038.22;5073373;28;20439;-82
2023/05/20 10:46:33;;;;;;;6.53;2.88;;;;;;;18.77;45.74;102036.53;5073722;28;20028;-83
2023/05/20 10:49:01;;;;;;;6.13;3.10;;;;;;;18.51;46.65;102035.53;5078402;28;20566;-91
2023/05/20 10:51:28;;;;;;;6.38;3.20;;;;;;;18.42;46.51;102052.41;5074737;28;20086;-90
2023/05/20 10:53:55;;;;;;;5.22;3.38;;;;;;;18.39;47.10;102036.78;5075570;28;20031;-89
2023/05/20 10:56:23;;;;;;;4.72;2.90;;;;;;;18.59;46.91;102033.53;5076005;28;20397;-89
2023/05/20 10:58:49;;;;;;;8.32;3.22;;;;;;;18.89;46.49;102030.88;5074362;28;20024;-90
2023/05/20 11:01:15;;;;;;;6.85;3.20;;;;;;;18.98;45.64;102040.25;5074375;28;20461;-90
2023/05/20 11:03:42;;;;;;;6.40;3.25;;;;;;;18.85;45.84;102034.50;5073755;28;20032;-90
2023/05/20 11:06:15;;;;;;;4.05;2.95;;;;;;;18.93;47.28;102040.41;5074344;28;20021;-90
2023/05/20 11:08:40;;;;;;;5.95;2.90;;;;;;;19.16;45.96;102023.03;5075257;28;20543;-90
2023/05/20 11:11:06;;;;;;;4.77;2.93;;;;;;;19.40;46.35;102025.75;5073126;28;20051;-91
2023/05/20 11:13:31;;;;;;;5.53;3.50;;;;;;;19.04;45.58;102003.25;5072660;28;20095;-89
2023/05/20 11:15:57;;;;;;;6.87;3.30;;;;;;;19.07;45.62;102018.06;5073492;28;20063;-88
2023/05/20 11:18:23;;;;;;;;;;;;;;;19.36;45.50;102011.84;5074584;28;20469;-90
2023/05/20 11:20:48;;;;;;;4.87;3.00;;;;;;;19.57;45.16;102027.81;5076833;28;19995;-88
2023/05/20 11:23:14;;;;;;;4.00;2.60;;;;;;;19.64;46.31;102008.28;5077404;28;20377;-90
2023/05/20 11:25:40;;;;;;;5.65;3.20;;;;;;;19.49;45.04;102014.06;5075233;28;20028;-90